Aeroporto :
LOGIN :

Iscrizione | Disclaimer

   EN    FR    IT 

 










Sommario :    VFR   VFR Marginale   IFR   IFR Intensivo   IFR Molto Intensivo
Visibilità : 
Base nubi : 
>= 8 km
>= 3000ft
5 / 8 km
1000 / 3000 ft
1500m / 5 km
500 / 1000 ft
800 / 1500m
200 / 500 ft
< 800m
< 200 ft
Simboli :   Temporali  Nebbia  Neve Forte  Precipitazioni Forti  Vento > 20 kt
SIGMETs :   Varie  Temporali  Ghiacco  Turbolenza  Onda orograficha  Ceneri Vulcaniche






- Altitudine del aeroporto : 218 ft


EGYD - RAF Cranwell

ULTIMO METAR :
  • 300850Z 19009KT 9999 FEW008 BKN220 11/11 Q1005 NOSIG RMK BLU BLU

METARs OBSOLETI :
  • 300820Z 18011KT 9999 FEW007 BKN220 11/11 Q1006 TEMPO SCT008 RMK BLU TEMPO GRN
  • 300750Z 18011KT 9999 FEW007 BKN220 10/10 Q1006 TEMPO SCT008 RMK BLU TEMPO GRN
  • 300720Z 19007KT 9000 BR FEW008 BKN250 09/09 Q1006 TEMPO SCT008 RMK BLU TEMPO GRN
  • 300650Z 18005KT 9999 4500E BCFG BKN250 08/08 Q1007 BECMG 9999 NSW FEW008 RMK GRN BECMG BLU
  • 300635Z 19005KT 8000 1800E BCFG FEW250 06/06 Q1007 BECMG 9999 NSW FEW008 RMK YLO2 BECMG BLU
  • 300620Z 20004KT 0800 FG OVC001 05/05 Q1007 BECMG 4000 BR SCT008 RMK RED BECMG GRN

TAF TAF EGYD
Valido dal 30 a 09 ore il 30 a 17 ore UTC


300751Z 3009/3017 19012KT 9999 FEW010
BECMG 3011/3014 19020G30KT
TEMPO 3013/3017 6000 RA BKN020
PROB40
TEMPO 3014/3017 4000 +RA BKN012



MetMap, La meteo Aeronautica in un colpo d'occhio ! - Copyright ORBIFLY Dicembre 2007 - Disclaimer

ORBIFLY MET'MAP TEAM :

Programmazione e sviluppo : Alexandra Zaïnal
Concezione : Baudouin d'Aumeries
Supporto tecnico e logistico : Manuel Goepfert
Aiuto : Marc-Olivier Méhu
Aiuto per la traduzione : Arnaldo La Scala




FONTI E CREDITI :

   NOAA